Time;durP1;ratioP1;P1;durP2;ratioP2;P2;SDS_P1;SDS_P2;PMS_P1;PMS_P2;Temp;Humidity;BMP_temperature;BMP_pressure;BME280_temperature;BME280_humidity;BME280_pressure;Samples;Min_cycle;Max_cycle;Signal;HPM_P1;HPM_P2
2022/04/29 00:00:51;;;;;;;;;;;282.10;2278.40;;;;;;5093953;28;19912;-79
2022/04/29 00:03:17;;;;;;;;;;;282.10;2278.40;;;;;;5075894;28;20024;-70
2022/04/29 00:05:43;;;;;;;;;;;282.10;2278.40;;;;;;5094005;28;20018;-76
2022/04/29 00:08:09;;;;;;;;;;;282.10;2278.40;;;;;;5094324;28;19943;-78
2022/04/29 00:10:36;;;;;;;;;;;282.10;2278.40;;;;;;5094193;28;19965;-71
2022/04/29 00:13:02;;;;;;;;;;;282.00;2278.40;;;;;;5093907;28;19904;-77
2022/04/29 00:15:28;;;;;;;;;;;282.00;2278.40;;;;;;5094174;28;19904;-72
2022/04/29 00:17:54;;;;;;;;;;;282.00;2278.40;;;;;;5093889;28;20268;-70
2022/04/29 00:20:20;;;;;;;;;;;282.00;2278.40;;;;;;5094052;28;19908;-80
2022/04/29 00:22:45;;;;;;;;;;;281.90;2278.40;;;;;;5093770;28;19908;-71
2022/04/29 00:25:11;;;;;;;;;;;281.90;2278.40;;;;;;5093797;28;19911;-71
2022/04/29 00:27:39;;;;;;;;;;;281.90;2278.40;;;;;;5093764;28;19904;-78
2022/04/29 00:30:08;;;;;;;;;;;281.80;2278.40;;;;;;5094111;28;19994;-70
2022/04/29 00:32:34;;;;;;;;;;;281.80;2278.40;;;;;;5093733;28;20356;-78
2022/04/29 00:35:00;;;;;;;;;;;281.80;2278.40;;;;;;5093513;28;19939;-70
2022/04/29 00:37:25;;;;;;;;;;;281.80;2278.40;;;;;;5093688;28;19904;-70
2022/04/29 00:39:51;;;;;;;;;;;281.80;2278.40;;;;;;5075472;28;19904;-71
2022/04/29 00:42:18;;;;;;;;;;;281.70;2278.40;;;;;;5093634;28;19949;-70
2022/04/29 00:44:44;;;;;;;;;;;281.70;2278.40;;;;;;5093780;28;19904;-71
2022/04/29 00:47:12;;;;;;;;;;;281.70;2278.40;;;;;;5093642;28;19926;-71
2022/04/29 00:49:38;;;;;;;;;;;281.70;2278.40;;;;;;5093584;28;19951;-70
2022/04/29 00:52:08;;;;;;;;;;;281.70;2278.40;;;;;;5093808;28;19951;-70
2022/04/29 00:54:35;;;;;;;;;;;281.60;2278.40;;;;;;5075470;28;19926;-70
2022/04/29 00:57:02;;;;;;;;;;;281.60;2278.40;;;;;;5095634;28;20312;-70
2022/04/29 00:59:33;;;;;;;;;;;281.60;2278.40;;;;;;5097346;28;19905;-70
2022/04/29 01:02:00;;;;;;;;;;;281.60;2278.40;;;;;;5097125;28;20368;-70
2022/04/29 01:04:32;;;;;;;;;;;281.60;2278.40;;;;;;5097140;28;19949;-71
2022/04/29 01:06:57;;;;;;;;;;;281.60;2278.40;;;;;;5079262;28;20273;-78
2022/04/29 01:09:23;;;;;;;;;;;281.60;2278.40;;;;;;5097357;28;19908;-71
2022/04/29 01:11:50;;;;;;;;;;;281.60;2278.40;;;;;;5097346;28;19904;-70
2022/04/29 01:14:15;;;;;;;;;;;256.90;2252.80;;;;;;5096996;28;19911;-77
2022/04/29 01:16:41;;;;;;;;;;;281.60;2278.40;;;;;;5096926;28;19908;-70
2022/04/29 01:19:07;;;;;;;;;;;256.90;2252.80;;;;;;5097156;28;19910;-77
2022/04/29 01:21:33;;;;;;;;;;;281.90;2278.40;;;;;;5096704;28;20303;-70
2022/04/29 01:23:58;;;;;;;;;;;256.90;2252.80;;;;;;5096857;28;20412;-71
2022/04/29 01:26:24;;;;;;;;;;;256.90;2252.80;;;;;;5096785;28;19904;-78
2022/04/29 01:28:51;;;;;;;;;;;256.80;2252.80;;;;;;5096666;28;19904;-70
2022/04/29 01:31:18;;;;;;;;;;;256.80;2252.80;;;;;;5096680;28;19904;-70
2022/04/29 01:33:47;;;;;;;;;;;256.80;2252.80;;;;;;5096436;28;19935;-71
2022/04/29 01:36:13;;;;;;;;;;;256.80;2252.80;;;;;;5096262;28;19965;-70
2022/04/29 01:38:39;;;;;;;;;;;256.80;2252.80;;;;;;5078449;28;19904;-77
2022/04/29 01:41:05;;;;;;;;;;;256.80;2252.80;;;;;;5097248;28;19912;-70
2022/04/29 01:43:31;;;;;;;;;;;256.80;2252.80;;;;;;5096447;28;19912;-70
2022/04/29 01:45:57;;;;;;;;;;;256.90;2252.80;;;;;;5096415;28;19997;-70
2022/04/29 01:48:23;;;;;;;;;;;256.80;2252.80;;;;;;5096386;28;19908;-79
2022/04/29 01:50:49;;;;;;;;;;;256.80;2252.80;;;;;;5096342;28;19904;-70
2022/04/29 01:53:15;;;;;;;;;;;256.70;2252.80;;;;;;5096175;28;19941;-71
2022/04/29 01:55:40;;;;;;;;;;;256.70;2252.80;;;;;;5096550;28;19904;-79
2022/04/29 01:58:06;;;;;;;;;;;256.70;2252.80;;;;;;5096168;28;20020;-70
2022/04/29 02:00:32;;;;;;;;;;;256.70;2252.80;;;;;;5096062;28;20417;-70
2022/04/29 02:02:57;;;;;;;;;;;256.60;2252.80;;;;;;5096033;28;19904;-70
2022/04/29 02:05:23;;;;;;;;;;;256.60;2252.80;;;;;;5095960;28;19912;-71
2022/04/29 02:07:49;;;;;;;;;;;256.70;2252.80;;;;;;5095243;28;19904;-70
2022/04/29 02:10:15;;;;;;;;;;;256.50;2252.80;;;;;;5095931;28;19966;-70
2022/04/29 02:12:41;;;;;;;;;;;256.50;2252.80;;;;;;5095988;28;19927;-70
2022/04/29 02:15:07;;;;;;;;;;;256.50;2252.80;;;;;;5095840;28;20353;-78
2022/04/29 02:17:33;;;;;;;;;;;256.50;2252.80;;;;;;5095727;28;20053;-70
2022/04/29 02:19:58;;;;;;;;;;;256.50;2252.80;;;;;;5095717;28;20340;-71
2022/04/29 02:22:24;;;;;;;;;;;256.40;2252.80;;;;;;5095989;28;19915;-70
2022/04/29 02:24:50;;;;;;;;;;;256.40;2252.80;;;;;;5095936;28;19904;-79
2022/04/29 02:27:15;;;;;;;;;;;256.30;2252.80;;;;;;5095633;28;19973;-80
2022/04/29 02:29:41;;;;;;;;;;;256.40;2252.80;;;;;;5095491;28;19904;-79
2022/04/29 02:32:07;;;;;;;;;;;256.30;2252.80;;;;;;5095527;28;19947;-71
2022/04/29 02:34:36;;;;;;;;;;;256.30;2252.80;;;;;;5095262;28;19912;-80
2022/04/29 02:37:02;;;;;;;;;;;256.30;2252.80;;;;;;5095445;28;19912;-82
2022/04/29 02:39:28;;;;;;;;;;;256.30;2252.80;;;;;;5095511;28;19904;-70
2022/04/29 02:41:54;;;;;;;;;;;256.30;2252.80;;;;;;5095503;28;19973;-73
2022/04/29 02:44:20;;;;;;;;;;;256.30;2252.80;;;;;;5094081;28;19904;-70
2022/04/29 02:49:30;;;;;;;;;;;256.30;2252.80;;;;;;5095827;28;19911;-70
2022/04/29 02:51:56;;;;;;;;;;;256.30;2252.80;;;;;;5095230;28;19904;-71
2022/04/29 02:54:22;;;;;;;;;;;256.30;2252.80;;;;;;5095130;28;19950;-70
2022/04/29 02:56:50;;;;;;;;;;;256.30;2252.80;;;;;;5094995;28;20368;-71
2022/04/29 02:59:17;;;;;;;;;;;256.30;2252.80;;;;;;5094975;28;19970;-71
2022/04/29 03:01:43;;;;;;;;;;;256.20;2252.80;;;;;;5094775;28;20284;-71
2022/04/29 03:04:09;;;;;;;;;;;256.30;2252.80;;;;;;5094866;28;19904;-70
2022/04/29 03:06:34;;;;;;;;;;;256.30;2252.80;;;;;;5094950;28;19904;-70
2022/04/29 03:09:00;;;;;;;;;;;256.30;2252.80;;;;;;5095191;28;19908;-78
2022/04/29 03:11:25;;;;;;;;;;;256.20;2252.80;;;;;;5094929;28;20296;-70
2022/04/29 03:13:51;;;;;;;;;;;256.30;2252.80;;;;;;5094985;28;19904;-70
2022/04/29 03:16:17;;;;;;;;;;;256.30;2252.80;;;;;;5094650;28;19912;-70
2022/04/29 03:18:43;;;;;;;;;;;256.30;2252.80;;;;;;5094750;28;19951;-70
2022/04/29 03:21:10;;;;;;;;;;;256.20;2252.80;;;;;;5094467;28;19912;-79
2022/04/29 03:23:36;;;;;;;;;;;256.20;2252.80;;;;;;5094451;28;19908;-70
2022/04/29 03:26:03;;;;;;;;;;;256.20;2252.80;;;;;;5094424;28;19904;-70
2022/04/29 03:28:29;;;;;;;;;;;256.10;2252.80;;;;;;5094543;28;19904;-70
2022/04/29 03:30:54;;;;;;;;;;;256.00;2252.80;;;;;;5094187;28;20294;-70
2022/04/29 03:33:20;;;;;;;;;;;256.00;2252.80;;;;;;5076258;28;19908;-70
2022/04/29 03:35:47;;;;;;;;;;;231.30;2252.80;;;;;;5094165;28;20360;-70
2022/04/29 03:38:13;;;;;;;;;;;231.20;2252.80;;;;;;5094320;28;19976;-70
2022/04/29 03:40:39;;;;;;;;;;;231.20;2252.80;;;;;;5094239;28;20356;-70
2022/04/29 03:43:05;;;;;;;;;;;231.20;2252.80;;;;;;5094520;28;19914;-70
2022/04/29 03:45:31;;;;;;;;;;;231.20;2252.80;;;;;;5094508;28;19904;-70
2022/04/29 03:47:57;;;;;;;;;;;231.20;2252.80;;;;;;5094153;28;20260;-70
2022/04/29 03:50:23;;;;;;;;;;;231.10;2252.80;;;;;;5076053;28;19904;-70
2022/04/29 03:52:56;;;;;;;;;;;231.10;2252.80;;;;;;5094144;28;19904;-70
2022/04/29 03:55:24;;;;;;;;;;;231.10;2252.80;;;;;;5094052;28;20006;-70
2022/04/29 03:57:50;;;;;;;;;;;231.10;2252.80;;;;;;5094187;28;19911;-70
2022/04/29 04:00:16;;;;;;;;;;;231.10;2252.80;;;;;;5094314;28;19907;-71
2022/04/29 04:02:42;;;;;;;;;;;231.00;2252.80;;;;;;5093998;28;19998;-70
2022/04/29 04:05:08;;;;;;;;;;;231.00;2252.80;;;;;;5094213;28;20279;-70
2022/04/29 04:07:34;;;;;;;;;;;231.00;2252.80;;;;;;5093936;28;19904;-70
2022/04/29 04:10:00;;;;;;;;;;;231.00;2252.80;;;;;;5094005;28;19908;-85
2022/04/29 04:12:26;;;;;;;;;;;231.10;2252.80;;;;;;5094127;28;19904;-81
2022/04/29 04:14:52;;;;;;;;;;;231.10;2252.80;;;;;;5093782;28;19914;-82
2022/04/29 04:17:17;;;;;;;;;;;231.10;2252.80;;;;;;5093606;28;20284;-83
2022/04/29 04:19:43;;;;;;;;;;;231.10;2252.80;;;;;;5094087;28;19990;-70
2022/04/29 04:22:09;;;;;;;;;;;231.20;2252.80;;;;;;5093807;28;19999;-77
2022/04/29 04:24:34;;;;;;;;;;;231.20;2252.80;;;;;;5093952;28;19904;-70
2022/04/29 04:27:00;;;;;;;;;;;231.20;2252.80;;;;;;5093944;28;19908;-70
2022/04/29 04:29:26;;;;;;;;;;;231.30;2252.80;;;;;;5094452;28;20326;-83
2022/04/29 04:31:52;;;;;;;;;;;231.30;2252.80;;;;;;5096613;28;19904;-70
2022/04/29 04:37:02;;;;;;;;;;;256.00;2252.80;;;;;;5098419;28;20387;-70
2022/04/29 04:39:28;;;;;;;;;;;256.10;2252.80;;;;;;5098074;28;19904;-70
2022/04/29 04:41:54;;;;;;;;;;;256.10;2252.80;;;;;;5097558;28;20100;-71
2022/04/29 04:44:19;;;;;;;;;;;256.20;2252.80;;;;;;5097775;28;19904;-70
2022/04/29 04:46:45;;;;;;;;;;;256.30;2252.80;;;;;;5097622;28;19948;-83
2022/04/29 04:49:13;;;;;;;;;;;256.30;2252.80;;;;;;5097624;28;19953;-83
2022/04/29 04:51:39;;;;;;;;;;;256.40;2252.80;;;;;;5097571;28;19904;-70
2022/04/29 04:54:04;;;;;;;;;;;256.50;2252.80;;;;;;5097535;28;19904;-83
2022/04/29 04:56:30;;;;;;;;;;;256.60;2252.80;;;;;;5097411;28;19904;-70
2022/04/29 04:58:56;;;;;;;;;;;256.70;2252.80;;;;;;5097491;28;20046;-74
2022/04/29 05:01:22;;;;;;;;;;;256.90;2252.80;;;;;;5097232;28;20353;-70
2022/04/29 05:03:48;;;;;;;;;;;281.60;2278.40;;;;;;5097469;28;19910;-81
2022/04/29 05:06:13;;;;;;;;;;;281.80;2278.40;;;;;;5097207;28;20422;-70
2022/04/29 05:08:39;;;;;;;;;;;281.80;2278.40;;;;;;5079156;28;19954;-70
2022/04/29 05:11:05;;;;;;;;;;;282.00;2278.40;;;;;;5097268;28;19957;-70
2022/04/29 05:13:30;;;;;;;;;;;282.10;2278.40;;;;;;5097605;28;19904;-72
2022/04/29 05:15:57;;;;;;;;;;;282.10;2278.40;;;;;;5096218;28;19958;-71
2022/04/29 05:18:22;;;;;;;;;;;282.30;2278.40;;;;;;5096242;28;19919;-77
2022/04/29 05:20:48;;;;;;;;;;;282.30;2278.40;;;;;;5096338;28;19912;-83
2022/04/29 05:23:14;;;;;;;;;;;282.40;2278.40;;;;;;5097345;28;19954;-83
2022/04/29 05:25:40;;;;;;;;;;;282.50;2278.40;;;;;;5096570;28;19927;-72
2022/04/29 05:28:07;;;;;;;;;;;282.50;2278.40;;;;;;5089599;28;20283;-85
2022/04/29 05:30:33;;;;;;;;;;;307.20;2304.00;;;;;;5084507;28;19904;-86
2022/04/29 05:32:58;;;;;;;;;;;307.20;2304.00;;;;;;5096666;28;19908;-84
2022/04/29 05:35:24;;;;;;;;;;;307.30;2304.00;;;;;;5096753;28;20022;-74
2022/04/29 05:37:50;;;;;;;;;;;307.40;2304.00;;;;;;5078628;28;19904;-70
2022/04/29 05:43:00;;;;;;;;;;;307.60;2304.00;;;;;;5095706;28;20399;-84
2022/04/29 05:45:26;;;;;;;;;;;307.70;2304.00;;;;;;5096518;28;19919;-75
2022/04/29 05:47:52;;;;;;;;;;;307.70;2304.00;;;;;;5096149;28;19908;-82
2022/04/29 05:50:17;;;;;;;;;;;307.90;2304.00;;;;;;5095797;28;20353;-75
2022/04/29 05:52:43;;;;;;;;;;;307.90;2304.00;;;;;;5095800;28;20010;-70
2022/04/29 05:55:09;;;;;;;;;;;307.90;2304.00;;;;;;5095905;28;19911;-71
2022/04/29 05:57:34;;;;;;;;;;;308.10;2304.00;;;;;;5095577;28;19943;-82
2022/04/29 06:00:00;;;;;;;;;;;308.10;2304.00;;;;;;5095848;28;19914;-77
2022/04/29 06:02:26;;;;;;;;;;;332.80;2329.60;;;;;;5095580;28;20353;-82
2022/04/29 06:04:52;;;;;;;;;;;332.80;2329.60;;;;;;5094388;28;20448;-72
2022/04/29 06:07:17;;;;;;;;;;;332.80;2329.60;;;;;;5093693;28;19994;-72
2022/04/29 06:09:43;;;;;;;;;;;332.90;2329.60;;;;;;5087786;28;19955;-75
2022/04/29 06:12:09;;;;;;;;;;;332.90;2329.60;;;;;;5087818;28;19954;-72
2022/04/29 06:14:35;;;;;;;;;;;333.00;2329.60;;;;;;5095178;28;19911;-75
2022/04/29 06:17:01;;;;;;;;;;;333.10;2329.60;;;;;;5094169;28;19915;-72
2022/04/29 06:19:26;;;;;;;;;;;333.30;2329.60;;;;;;5095404;28;19904;-76
2022/04/29 06:21:52;;;;;;;;;;;333.30;2329.60;;;;;;5095382;28;20002;-73
2022/04/29 06:24:17;;;;;;;;;;;333.30;2329.60;;;;;;5085197;28;19998;-73
2022/04/29 06:26:43;;;;;;;;;;;333.40;2329.60;;;;;;5095018;28;19908;-74
2022/04/29 06:29:09;;;;;;;;;;;333.50;2329.60;;;;;;5082029;28;19904;-74
2022/04/29 06:31:35;;;;;;;;;;;333.60;2329.60;;;;;;5084483;28;19904;-75
2022/04/29 06:34:00;;;;;;;;;;;333.70;2329.60;;;;;;5094554;28;19908;-78
2022/04/29 06:36:32;;;;;;;;;;;358.40;2329.60;;;;;;5094208;28;19923;-76
2022/04/29 06:38:58;;;;;;;;;;;358.40;2329.60;;;;;;5094537;28;19904;-74
2022/04/29 06:41:24;;;;;;;;;;;358.50;2329.60;;;;;;5094781;28;20284;-81
2022/04/29 06:43:50;;;;;;;;;;;358.60;2329.60;;;;;;5094675;28;19904;-78
2022/04/29 06:46:17;;;;;;;;;;;358.70;2329.60;;;;;;5094255;28;19957;-76
2022/04/29 06:48:43;;;;;;;;;;;358.80;2329.60;;;;;;5094806;28;19904;-79
2022/04/29 06:51:08;;;;;;;;;;;358.90;2329.60;;;;;;5094771;28;19930;-83
2022/04/29 06:53:34;;;;;;;;;;;359.00;2329.60;;;;;;5094553;28;19950;-74
2022/04/29 06:55:59;;;;;;;;;;;359.00;2329.60;;;;;;5094364;28;20291;-78
2022/04/29 06:58:26;;;;;;;;;;;359.00;2329.60;;;;;;5094433;28;19904;-81
2022/04/29 07:00:52;;;;;;;;;;;359.10;2329.60;;;;;;5094144;28;19973;-79
2022/04/29 07:03:18;;;;;;;;;;;359.20;2329.60;;;;;;5084548;28;19904;-79
2022/04/29 07:05:44;;;;;;;;;;;359.30;2329.60;;;;;;5085419;28;19904;-75
2022/04/29 07:08:10;;;;;;;;;;;384.00;2329.60;;;;;;5093896;28;19904;-78
2022/04/29 07:10:36;;;;;;;;;;;384.20;2329.60;;;;;;5083947;28;19943;-79
2022/04/29 07:13:03;;;;;;;;;;;384.40;2329.60;;;;;;5094287;28;19939;-78
2022/04/29 07:15:29;;;;;;;;;;;384.70;2329.60;;;;;;5092830;28;19911;-80
2022/04/29 07:17:55;;;;;;;;;;;409.60;2355.20;;;;;;5092762;28;20011;-75
2022/04/29 07:20:21;;;;;;;;;;;409.80;2355.20;;;;;;5083316;28;19958;-78
2022/04/29 07:22:46;;;;;;;;;;;410.10;2355.20;;;;;;5093554;28;20372;-74
2022/04/29 07:25:13;;;;;;;;;;;435.30;2355.20;;;;;;5093943;28;19927;-73
2022/04/29 07:27:40;;;;;;;;;;;435.50;2355.20;;;;;;5092788;28;19908;-80
2022/04/29 07:30:07;;;;;;;;;;;435.70;2355.20;;;;;;5093884;28;19903;-79
2022/04/29 07:32:33;;;;;;;;;;;460.80;2380.80;;;;;;5093614;28;19908;-78
2022/04/29 07:43:13;;;;;;;;;;;461.40;2380.80;;;;;;5093890;28;20296;-77
2022/04/29 07:45:39;;;;;;;;;;;461.50;2380.80;;;;;;5079603;28;19904;-80
2022/04/29 07:48:05;;;;;;;;;;;461.70;2380.80;;;;;;5093852;28;20002;-82
2022/04/29 07:50:32;;;;;;;;;;;486.50;2380.80;;;;;;5094091;28;19911;-81
2022/04/29 07:52:58;;;;;;;;;;;486.70;2380.80;;;;;;5084026;28;19904;-77
2022/04/29 07:55:24;;;;;;;;;;;486.80;2355.20;;;;;;5093425;28;19999;-77
2022/04/29 07:57:50;;;;;;;;;;;486.90;2380.80;;;;;;5093574;28;19949;-83
2022/04/29 08:00:17;;;;;;;;;;;487.10;2252.80;;;;;;5093340;28;20359;-79
2022/04/29 08:02:43;;;;;;;;;;;487.20;2252.80;;;;;;5093413;28;19962;-80
2022/04/29 08:05:08;;;;;;;;;;;512.10;2278.40;;;;;;5089120;28;19904;-74
2022/04/29 08:07:34;;;;;;;;;;;512.10;2201.60;;;;;;5093082;28;19908;-76
2022/04/29 08:10:00;;;;;;;;;;;512.20;2150.40;;;;;;5093631;28;19911;-78
2022/04/29 08:12:28;;;;;;;;;;;512.90;2176.00;;;;;;5075080;28;20288;-73
2022/04/29 08:14:54;;;;;;;;;;;512.60;2099.20;;;;;;5093295;28;19908;-79
2022/04/29 08:17:21;;;;;;;;;;;512.90;2073.60;;;;;;5093225;28;19977;-78
2022/04/29 08:19:51;;;;;;;11.85;9.23;;;538.40;2099.20;;;;;;5087872;28;19904;-81
2022/04/29 08:22:18;;;;;;;11.23;9.18;;;563.80;1945.60;;;;;;5092527;28;20161;-75
2022/04/29 08:24:45;;;;;;;11.77;8.77;;;588.90;1868.80;;;;;;5092731;28;20016;-74
2022/04/29 08:27:12;;;;;;;11.32;8.40;;;589.50;1894.40;;;;;;5093057;28;20024;-78
2022/04/29 08:29:39;;;;;;;11.50;8.23;;;589.60;1715.20;;;;;;5092566;28;20019;-72
2022/04/29 08:32:06;;;;;;;10.45;9.05;;;589.10;1817.60;;;;;;5089014;28;20733;-72
2022/04/29 08:34:35;;;;;;;9.60;8.60;;;589.20;1817.60;;;;;;5091219;28;20871;-80
2022/04/29 08:37:03;;;;;;;12.18;9.38;;;589.50;1843.20;;;;;;5081380;28;20879;-83
2022/04/29 08:39:30;;;;;;;;;;;589.50;1740.80;;;;;;5093116;28;20063;-83
2022/04/29 08:41:57;;;;;;;;;;;589.30;1792.00;;;;;;5093100;28;20277;-71
2022/04/29 08:44:23;;;;;;;;;;;589.00;1766.40;;;;;;5093206;28;19907;-72
2022/04/29 08:46:49;;;;;;;;;;;588.90;1792.00;;;;;;5092194;28;19953;-72
2022/04/29 08:49:16;;;;;;;;;;;589.00;1792.00;;;;;;5092655;28;19908;-73
2022/04/29 08:51:43;;;;;;;;;;;589.10;1817.60;;;;;;5093075;28;19904;-75
2022/04/29 08:58:36;;;;;;;;;;;589.30;1817.60;;;;;;5093298;28;19904;-74
2022/04/29 08:59:40;;;;;;;;;;;589.00;1689.60;;;;;;5094167;28;19947;-73
2022/04/29 09:02:06;;;;;;;;;;;589.00;1715.20;;;;;;5093195;28;20376;-75
2022/04/29 09:04:32;;;;;;;;;;;589.00;1689.60;;;;;;5092883;28;19914;-81
2022/04/29 09:06:57;;;;;;;;;;;589.10;1638.40;;;;;;5091899;28;19912;-82
2022/04/29 09:09:23;;;;;;;;;;;589.20;1612.80;;;;;;5092447;28;19915;-80
2022/04/29 09:11:49;;;;;;;;;;;589.20;1664.00;;;;;;5092413;28;19911;-74
2022/04/29 09:14:18;;;;;;;;;;;589.30;1612.80;;;;;;5092735;28;20378;-83
2022/04/29 09:16:45;;;;;;;;;;;589.30;1587.20;;;;;;5093377;28;19915;-75
2022/04/29 09:19:27;;;;;;;;;;;589.50;1638.40;;;;;;5093526;28;19915;-78
2022/04/29 09:22:03;;;;;;;;;;;589.70;1638.40;;;;;;5094417;28;19916;-80
2022/04/29 09:24:29;;;;;;;;;;;589.50;1536.00;;;;;;5096559;28;19911;-75
2022/04/29 09:26:58;;;;;;;;;;;589.40;1484.80;;;;;;5096015;28;19904;-73
2022/04/29 09:29:24;;;;;;;;;;;588.90;1510.40;;;;;;5095699;28;19908;-79
2022/04/29 09:31:52;;;;;;;;;;;589.20;1510.40;;;;;;5095741;28;19904;-77
2022/04/29 09:34:18;;;;;;;;;;;589.50;1510.40;;;;;;5095762;28;19912;-72
2022/04/29 09:36:44;;;;;;;;;;;589.50;1484.80;;;;;;5095864;28;20383;-70
2022/04/29 09:39:30;;;;;;;;;;;589.60;1484.80;;;;;;5085342;28;20018;-75
2022/04/29 09:42:05;;;;;;;;;;;614.40;1433.60;;;;;;5093564;28;19923;-79
2022/04/29 09:44:32;;;;;;;;;;;614.60;1484.80;;;;;;5095293;28;19908;-80
2022/04/29 09:47:11;;;;;;;;;;;614.40;1433.60;;;;;;5094998;28;19908;-75
2022/04/29 09:49:37;;;;;;;;;;;614.50;1433.60;;;;;;5093159;28;19927;-75
2022/04/29 09:52:03;;;;;;;;;;;589.70;1382.40;;;;;;5094305;28;20356;-73
2022/04/29 09:54:30;;;;;;;;;;;589.50;1408.00;;;;;;5094284;28;20335;-76
2022/04/29 09:57:06;;;;;;;;;;;589.60;1382.40;;;;;;5095261;28;19943;-79
2022/04/29 09:59:33;;;;;;;;;;;589.50;1408.00;;;;;;5095246;28;20348;-72
2022/04/29 10:02:00;;;;;;;;;;;614.40;1433.60;;;;;;5077044;28;19911;-78
2022/04/29 10:04:28;;;;;;;;;;;589.70;1408.00;;;;;;5095277;28;19916;-76
2022/04/29 10:06:54;;;;;;;;;;;589.20;1459.20;;;;;;5095680;28;19943;-78
2022/04/29 10:09:21;;;;;;;;;;;588.90;1459.20;;;;;;5095262;28;19955;-75
2022/04/29 10:11:47;;;;;;;;;;;588.90;1433.60;;;;;;5094434;28;19912;-77
2022/04/29 10:14:14;;;;;;;;;;;589.20;1484.80;;;;;;5094076;28;20590;-71
2022/04/29 10:16:43;;;;;;;;;;;589.30;1408.00;;;;;;5094998;28;19973;-77
2022/04/29 10:21:57;;;;;;;;;;;589.70;1408.00;;;;;;5095078;28;20014;-74
2022/04/29 10:24:24;;;;;;;;;;;614.40;1356.80;;;;;;5094843;28;20257;-72
2022/04/29 10:26:52;;;;;;;;;;;589.50;1408.00;;;;;;5094426;28;19908;-81
2022/04/29 10:29:18;;;;;;;;;;;589.00;1433.60;;;;;;5093513;28;20287;-73
2022/04/29 10:32:03;;;;;;;;;;;589.60;1408.00;;;;;;5084781;28;19953;-70
2022/04/29 10:34:30;;;;;;;;;;;614.50;1408.00;;;;;;5094505;28;19908;-71
2022/04/29 10:36:56;;;;;;;;;;;589.70;1356.80;;;;;;5095444;28;19951;-73
2022/04/29 10:39:22;;;;;;;;;;;614.40;1408.00;;;;;;5094829;28;19904;-78
2022/04/29 10:41:58;;;;;;;;;;;614.70;1408.00;;;;;;5094895;28;20325;-72
2022/04/29 10:44:23;;;;;;;;;;;589.60;1408.00;;;;;;5094713;28;19912;-75
2022/04/29 10:46:50;;;;;;;;;;;589.10;1433.60;;;;;;5094827;28;20399;-73
2022/04/29 10:49:27;;;;;;;;;;;589.00;1382.40;;;;;;5094104;28;19951;-73
2022/04/29 10:52:02;;;;;;;;;;;589.70;1382.40;;;;;;5094629;28;19999;-73
2022/04/29 10:54:34;;;;;;;;;;;589.50;1408.00;;;;;;5084054;28;20302;-78
2022/04/29 10:57:02;;;;;;;;;;;588.80;1408.00;;;;;;5094017;28;19904;-71
2022/04/29 10:59:47;;;;;;;;;;;589.10;1408.00;;;;;;5094818;28;19904;-70
2022/04/29 11:02:22;;;;;;;;;;;564.00;1408.00;;;;;;5093223;28;19912;-73
2022/04/29 11:04:47;;;;;;;;;;;564.10;1408.00;;;;;;5094846;28;19943;-73
2022/04/29 11:07:32;;;;;;;;;;;563.70;1408.00;;;;;;5094858;28;19962;-72
2022/04/29 11:09:58;;;;;;;;;;;563.60;1433.60;;;;;;5094698;28;19991;-69
2022/04/29 11:12:34;;;;;;;;;;;564.00;1382.40;;;;;;5094172;28;20046;-71
2022/04/29 11:15:11;;;;;;;;;;;563.70;1433.60;;;;;;5094164;28;19915;-77
2022/04/29 11:17:37;;;;;;;;;;;563.70;1433.60;;;;;;5093644;28;19915;-70
2022/04/29 11:20:14;;;;;;;;;;;563.70;1433.60;;;;;;5094439;28;20348;-77
2022/04/29 11:25:24;;;;;;;;;;;564.10;1433.60;;;;;;5094494;28;19915;-70
2022/04/29 11:27:50;;;;;;;;;;;589.30;1382.40;;;;;;5094279;28;19904;-69
2022/04/29 11:30:16;;;;;;;;;;;589.30;1408.00;;;;;;5093735;28;20034;-69
2022/04/29 11:32:42;;;;;;;;;;;589.00;1382.40;;;;;;5093735;28;20002;-71
2022/04/29 11:35:08;;;;;;;;;;;563.80;1408.00;;;;;;5093401;28;19923;-71
2022/04/29 11:37:34;;;;;;;;;;;563.50;1433.60;;;;;;5090977;28;20013;-71
2022/04/29 11:40:07;;;;;;;;;;;563.40;1459.20;;;;;;5085265;28;20343;-78
2022/04/29 11:42:34;;;;;;;;;;;563.40;1459.20;;;;;;5071922;28;20022;-72
2022/04/29 11:45:08;;;;;;;;;;;588.80;1433.60;;;;;;5083719;28;19915;-70
2022/04/29 11:47:33;;;;;;;;;;;589.40;1356.80;;;;;;5072627;28;19914;-75
2022/04/29 11:50:01;;;;;;;;;;;614.60;1356.80;;;;;;5092348;28;19908;-77
2022/04/29 11:52:30;;;;;;;;;;;614.60;1331.20;;;;;;5092339;28;19996;-73
2022/04/29 11:54:58;;;;;;;;;;;589.40;1356.80;;;;;;5092591;28;19942;-70
2022/04/29 11:57:25;;;;;;;;;;;588.80;1382.40;;;;;;5092210;28;19908;-69
2022/04/29 11:59:51;;;;;;;;;;;564.00;1382.40;;;;;;5092736;28;19943;-74
2022/04/29 12:02:18;;;;;;;;;;;563.80;1408.00;;;;;;5090710;28;19966;-70
2022/04/29 12:05:02;;;;;;;;;;;563.70;1561.60;;;;;;5091813;28;20348;-69
2022/04/29 12:07:29;;;;;;;;;;;564.10;1459.20;;;;;;5092847;28;19904;-73
2022/04/29 12:09:55;;;;;;;;;;;563.70;1459.20;;;;;;5073952;28;20488;-71
2022/04/29 12:12:24;;;;;;;;;;;563.70;1433.60;;;;;;5092514;28;19904;-71
2022/04/29 12:14:49;;;;;;;;;;;563.40;1433.60;;;;;;5092810;28;20000;-71
2022/04/29 12:17:16;;;;;;;;;;;563.40;1433.60;;;;;;5075314;28;20360;-74
2022/04/29 12:19:41;;;;;;;;;;;538.50;1408.00;;;;;;5093594;28;19904;-74
2022/04/29 12:22:09;;;;;;;;;;;538.30;1408.00;;;;;;5092052;28;19937;-77
2022/04/29 12:24:42;;;;;;;;;;;538.20;1408.00;;;;;;5092466;28;20387;-72
2022/04/29 12:27:08;;;;;;;;;;;538.20;1459.20;;;;;;5092647;28;19929;-72
2022/04/29 12:29:35;;;;;;;;;;;563.40;1433.60;;;;;;5092984;28;19916;-74
2022/04/29 12:35:10;;;;;;;;;;;589.10;1356.80;;;;;;5091277;28;19990;-74
2022/04/29 12:37:36;;;;;;;;;;;614.40;1280.00;;;;;;5093415;28;20303;-72
2022/04/29 12:40:09;;;;;;;;;;;614.90;1280.00;;;;;;5093299;28;20356;-72
2022/04/29 12:42:35;;;;;;;;;;;614.50;1305.60;;;;;;5093239;28;19916;-71
2022/04/29 12:45:22;;;;;;;;;;;589.30;1356.80;;;;;;5093225;28;20003;-72
2022/04/29 12:47:54;;;;;;;;;;;589.00;1356.80;;;;;;5093214;28;19904;-72
2022/04/29 12:50:39;;;;;;;;;;;588.80;1382.40;;;;;;5092603;28;19987;-71
2022/04/29 12:53:09;;;;;;;;;;;589.60;1356.80;;;;;;5095338;28;19908;-70
2022/04/29 12:55:46;;;;;;;;;;;615.00;1305.60;;;;;;5096969;28;19922;-71
2022/04/29 12:58:15;;;;;;;;;;;615.00;1254.40;;;;;;5097106;28;19941;-71
2022/04/29 13:00:42;;;;;;;;;;;615.30;1254.40;;;;;;5097080;28;19915;-72
2022/04/29 13:03:09;;;;;;;;;;;614.80;1254.40;;;;;;5096758;28;19950;-71
2022/04/29 13:05:35;;;;;;;;;;;614.70;1305.60;;;;;;5096516;28;19958;-70
2022/04/29 13:08:03;;;;;;;;;;;614.60;1305.60;;;;;;5097198;28;19960;-74
2022/04/29 13:10:29;;;;;;;;;;;589.40;1356.80;;;;;;5097023;28;19904;-74
2022/04/29 13:12:56;;;;;;;;;;;588.80;1356.80;;;;;;5096909;28;20272;-77
2022/04/29 13:15:21;;;;;;;;;;;563.70;1382.40;;;;;;5096701;28;19904;-72
2022/04/29 13:17:47;;;;;;;;;;;563.40;1408.00;;;;;;5096998;28;19911;-74
2022/04/29 13:20:13;;;;;;;;;;;563.20;1433.60;;;;;;5096421;28;19911;-72
2022/04/29 13:22:39;;;;;;;;;;;563.50;1408.00;;;;;;5094467;28;20020;-73
2022/04/29 13:25:08;;;;;;;;;;;564.10;1356.80;;;;;;5096497;28;19911;-73
2022/04/29 13:27:34;;;;;;;;;;;564.00;1356.80;;;;;;5096054;28;19908;-77
2022/04/29 13:30:05;;;;;;;;;;;563.80;1382.40;;;;;;5096204;28;19949;-72
2022/04/29 13:32:31;;;;;;;;;;;563.70;1408.00;;;;;;5096224;28;19905;-74
2022/04/29 13:34:57;;;;;;;;;;;564.00;1408.00;;;;;;5096112;28;19917;-75
2022/04/29 13:37:23;;;;;;;;;;;563.90;1408.00;;;;;;5095945;28;19911;-71
2022/04/29 13:39:49;;;;;;;;;;;563.70;1433.60;;;;;;5077984;28;19904;-73
2022/04/29 13:42:15;;;;;;;;;;;563.50;1433.60;;;;;;5096027;28;19919;-72
2022/04/29 13:44:42;;;;;;;;;;;563.50;1433.60;;;;;;5095884;28;19904;-73
2022/04/29 13:47:08;;;;;;;;;;;563.50;1433.60;;;;;;5095692;28;19907;-74
2022/04/29 13:49:34;;;;;;;;;;;563.40;1408.00;;;;;;5095848;28;19973;-74
2022/04/29 13:53:07;;;;;;;;;;;563.40;1433.60;;;;;;5095722;28;19908;-75
2022/04/29 13:54:45;;;;;;;;;;;563.60;1408.00;;;;;;5095714;28;19908;-71
2022/04/29 13:57:11;;;;;;;;;;;563.80;1408.00;;;;;;5095488;28;19915;-75
2022/04/29 13:59:36;;;;;;;;;;;563.80;1433.60;;;;;;5095459;28;19986;-74
2022/04/29 14:02:02;;;;;;;;;;;563.70;1433.60;;;;;;5095458;28;20014;-74
2022/04/29 14:04:28;;;;;;;;;;;563.50;1433.60;;;;;;5094450;28;20280;-73
2022/04/29 14:06:54;;;;;;;;;;;563.30;1459.20;;;;;;5077348;28;19908;-73